sensor_id;sensor_type;location;lat;lon;timestamp;pressure;altitude;pressure_sealevel;temperature;humidity
22181;BME280;11256;50.830;12.834;2023-10-09T00:04:42;98099.94;;;12.71;61.45
22181;BME280;11256;50.830;12.834;2023-10-09T00:09:45;98111.91;;;12.75;61.73
22181;BME280;11256;50.830;12.834;2023-10-09T00:14:49;98096.69;;;12.69;61.55
22181;BME280;11256;50.830;12.834;2023-10-09T00:19:50;98081.44;;;12.73;61.76
22181;BME280;11256;50.830;12.834;2023-10-09T00:24:59;98063.72;;;12.75;61.73
22181;BME280;11256;50.830;12.834;2023-10-09T00:30:13;98033.03;;;12.75;61.73
22181;BME280;11256;50.830;12.834;2023-10-09T00:35:18;98056.91;;;12.78;61.94
22181;BME280;11256;50.830;12.834;2023-10-09T00:40:39;98047.66;;;12.79;62.17
22181;BME280;11256;50.830;12.834;2023-10-09T00:45:46;98033.78;;;12.80;62.00
22181;BME280;11256;50.830;12.834;2023-10-09T00:50:47;98018.59;;;12.74;62.48
22181;BME280;11256;50.830;12.834;2023-10-09T00:55:52;98028.06;;;12.82;62.06
22181;BME280;11256;50.830;12.834;2023-10-09T01:00:56;98003.00;;;12.85;62.26
22181;BME280;11256;50.830;12.834;2023-10-09T01:06:01;97997.00;;;12.88;62.58
22181;BME280;11256;50.830;12.834;2023-10-09T01:11:12;97986.09;;;12.88;62.46
22181;BME280;11256;50.830;12.834;2023-10-09T01:16:21;97973.66;;;12.82;62.04
22181;BME280;11256;50.830;12.834;2023-10-09T01:21:23;97984.78;;;12.85;62.23
22181;BME280;11256;50.830;12.834;2023-10-09T01:26:25;97967.63;;;12.85;62.42
22181;BME280;11256;50.830;12.834;2023-10-09T01:31:26;97945.94;;;12.80;62.51
22181;BME280;11256;50.830;12.834;2023-10-09T01:36:27;97925.88;;;12.76;62.65
22181;BME280;11256;50.830;12.834;2023-10-09T01:41:34;97938.75;;;12.89;62.73
22181;BME280;11256;50.830;12.834;2023-10-09T01:46:36;97938.44;;;12.95;62.95
22181;BME280;11256;50.830;12.834;2023-10-09T01:51:36;97923.22;;;12.94;63.09
22181;BME280;11256;50.830;12.834;2023-10-09T01:56:38;97930.25;;;13.00;63.60
22181;BME280;11256;50.830;12.834;2023-10-09T02:01:42;97922.38;;;12.99;63.64
22181;BME280;11256;50.830;12.834;2023-10-09T02:06:47;97920.09;;;13.06;64.00
22181;BME280;11256;50.830;12.834;2023-10-09T02:11:52;97903.72;;;13.11;64.61
22181;BME280;11256;50.830;12.834;2023-10-09T02:16:52;97897.31;;;13.20;65.32
22181;BME280;11256;50.830;12.834;2023-10-09T02:22:02;97881.25;;;13.24;65.68
22181;BME280;11256;50.830;12.834;2023-10-09T02:27:12;97864.19;;;13.37;65.92
22181;BME280;11256;50.830;12.834;2023-10-09T02:32:15;97853.72;;;13.44;66.69
22181;BME280;11256;50.830;12.834;2023-10-09T02:37:26;97856.38;;;13.49;66.95
22181;BME280;11256;50.830;12.834;2023-10-09T02:42:27;97844.31;;;13.55;67.44
22181;BME280;11256;50.830;12.834;2023-10-09T02:47:28;97830.03;;;13.63;69.41
22181;BME280;11256;50.830;12.834;2023-10-09T02:52:37;97806.03;;;13.65;69.35
22181;BME280;11256;50.830;12.834;2023-10-09T02:57:40;97813.63;;;13.68;70.21
22181;BME280;11256;50.830;12.834;2023-10-09T03:02:43;97793.72;;;13.67;69.14
22181;BME280;11256;50.830;12.834;2023-10-09T03:07:46;97778.63;;;13.75;70.54
22181;BME280;11256;50.830;12.834;2023-10-09T03:12:49;97778.84;;;13.78;71.13
22181;BME280;11256;50.830;12.834;2023-10-09T03:17:53;97774.72;;;13.81;71.04
22181;BME280;11256;50.830;12.834;2023-10-09T03:22:53;97770.28;;;13.85;71.23
22181;BME280;11256;50.830;12.834;2023-10-09T03:27:54;97757.44;;;13.85;71.90
22181;BME280;11256;50.830;12.834;2023-10-09T03:32:56;97763.13;;;13.89;72.28
22181;BME280;11256;50.830;12.834;2023-10-09T03:37:57;97754.25;;;13.97;73.07
22181;BME280;11256;50.830;12.834;2023-10-09T03:43:00;97769.00;;;13.96;72.29
22181;BME280;11256;50.830;12.834;2023-10-09T03:48:01;97772.22;;;13.98;73.75
22181;BME280;11256;50.830;12.834;2023-10-09T03:53:09;97758.31;;;13.99;73.28
22181;BME280;11256;50.830;12.834;2023-10-09T03:58:12;97768.81;;;14.06;74.05
22181;BME280;11256;50.830;12.834;2023-10-09T04:03:15;97769.81;;;14.10;75.61
22181;BME280;11256;50.830;12.834;2023-10-09T04:08:15;97761.34;;;14.11;74.44
22181;BME280;11256;50.830;12.834;2023-10-09T04:13:28;97770.25;;;14.17;73.79
22181;BME280;11256;50.830;12.834;2023-10-09T04:18:35;97768.25;;;14.22;74.26
22181;BME280;11256;50.830;12.834;2023-10-09T04:23:38;97766.25;;;14.28;74.93
22181;BME280;11256;50.830;12.834;2023-10-09T04:28:57;97767.25;;;14.32;73.57
22181;BME280;11256;50.830;12.834;2023-10-09T04:33:58;97765.13;;;14.29;73.88
22181;BME280;11256;50.830;12.834;2023-10-09T04:39:17;97738.91;;;14.33;73.54
22181;BME280;11256;50.830;12.834;2023-10-09T04:44:30;97761.00;;;14.45;74.34
22181;BME280;11256;50.830;12.834;2023-10-09T04:49:39;97729.28;;;14.49;73.81
22181;BME280;11256;50.830;12.834;2023-10-09T04:54:48;97720.59;;;14.47;73.68
22181;BME280;11256;50.830;12.834;2023-10-09T05:00:08;97726.44;;;14.54;74.14
22181;BME280;11256;50.830;12.834;2023-10-09T05:05:28;97695.94;;;14.52;73.79
22181;BME280;11256;50.830;12.834;2023-10-09T05:10:40;97697.56;;;14.53;75.04
22181;BME280;11256;50.830;12.834;2023-10-09T05:15:54;97705.25;;;14.51;74.36
22181;BME280;11256;50.830;12.834;2023-10-09T05:20:57;97724.63;;;14.63;74.72
22181;BME280;11256;50.830;12.834;2023-10-09T05:26:18;97709.25;;;14.67;74.57
22181;BME280;11256;50.830;12.834;2023-10-09T05:31:37;97714.91;;;14.70;74.61
22181;BME280;11256;50.830;12.834;2023-10-09T05:36:56;97708.03;;;14.73;74.57
22181;BME280;11256;50.830;12.834;2023-10-09T05:42:11;97710.28;;;14.71;74.79
22181;BME280;11256;50.830;12.834;2023-10-09T05:47:18;97706.44;;;14.72;74.37
22181;BME280;11256;50.830;12.834;2023-10-09T05:52:37;97718.75;;;14.69;74.98
22181;BME280;11256;50.830;12.834;2023-10-09T05:57:38;97707.66;;;14.66;74.35
22181;BME280;11256;50.830;12.834;2023-10-09T06:02:57;97726.00;;;14.74;74.58
22181;BME280;11256;50.830;12.834;2023-10-09T06:08:19;97723.19;;;14.79;74.62
22181;BME280;11256;50.830;12.834;2023-10-09T06:13:38;97715.72;;;14.71;74.35
22181;BME280;11256;50.830;12.834;2023-10-09T06:18:46;97729.75;;;14.78;74.91
22181;BME280;11256;50.830;12.834;2023-10-09T06:24:08;97729.03;;;14.72;74.23
22181;BME280;11256;50.830;12.834;2023-10-09T06:29:18;97735.69;;;14.80;74.76
22181;BME280;11256;50.830;12.834;2023-10-09T06:34:35;97741.97;;;14.80;74.35
22181;BME280;11256;50.830;12.834;2023-10-09T06:39:37;97753.69;;;14.81;74.70
22181;BME280;11256;50.830;12.834;2023-10-09T06:44:55;97746.22;;;14.86;75.42
22181;BME280;11256;50.830;12.834;2023-10-09T06:49:56;97780.75;;;14.91;75.58
22181;BME280;11256;50.830;12.834;2023-10-09T06:55:16;97754.59;;;14.90;75.63
22181;BME280;11256;50.830;12.834;2023-10-09T07:00:20;97766.50;;;14.94;75.58
22181;BME280;11256;50.830;12.834;2023-10-09T07:05:39;97759.22;;;14.89;75.22
22181;BME280;11256;50.830;12.834;2023-10-09T07:11:00;97780.53;;;15.01;75.80
22181;BME280;11256;50.830;12.834;2023-10-09T07:16:22;97804.00;;;15.02;75.17
22181;BME280;11256;50.830;12.834;2023-10-09T07:21:29;97797.22;;;14.99;75.59
22181;BME280;11256;50.830;12.834;2023-10-09T07:26:30;97801.16;;;15.07;76.06
22181;BME280;11256;50.830;12.834;2023-10-09T07:31:37;97803.59;;;15.08;75.86
22181;BME280;11256;50.830;12.834;2023-10-09T07:36:40;97784.59;;;15.03;76.29
22181;BME280;11256;50.830;12.834;2023-10-09T07:41:48;97822.19;;;15.20;76.33
22181;BME280;11256;50.830;12.834;2023-10-09T07:47:15;97819.56;;;15.15;76.37
22181;BME280;11256;50.830;12.834;2023-10-09T07:52:41;97833.47;;;15.27;77.02
22181;BME280;11256;50.830;12.834;2023-10-09T07:57:45;97833.19;;;15.28;77.70
22181;BME280;11256;50.830;12.834;2023-10-09T08:02:52;97827.81;;;15.37;77.47
22181;BME280;11256;50.830;12.834;2023-10-09T08:08:01;97826.41;;;15.39;76.98
22181;BME280;11256;50.830;12.834;2023-10-09T08:13:31;97838.56;;;15.33;76.20
22181;BME280;11256;50.830;12.834;2023-10-09T08:18:50;97842.59;;;15.36;76.27
22181;BME280;11256;50.830;12.834;2023-10-09T08:23:53;97856.75;;;15.38;75.86
22181;BME280;11256;50.830;12.834;2023-10-09T08:28:55;97861.38;;;15.37;75.71
22181;BME280;11256;50.830;12.834;2023-10-09T08:34:15;97871.81;;;15.35;75.80
22181;BME280;11256;50.830;12.834;2023-10-09T08:39:25;97861.19;;;15.34;75.28
22181;BME280;11256;50.830;12.834;2023-10-09T08:44:27;97856.75;;;15.38;75.75
22181;BME280;11256;50.830;12.834;2023-10-09T08:49:30;97854.13;;;15.33;76.58
22181;BME280;11256;50.830;12.834;2023-10-09T08:54:33;97863.13;;;15.47;76.09
22181;BME280;11256;50.830;12.834;2023-10-09T08:59:40;97873.53;;;15.45;75.88
22181;BME280;11256;50.830;12.834;2023-10-09T09:04:42;97864.84;;;15.43;75.64
22181;BME280;11256;50.830;12.834;2023-10-09T09:09:54;97870.28;;;15.43;75.22
22181;BME280;11256;50.830;12.834;2023-10-09T09:14:57;97865.59;;;15.57;76.05
22181;BME280;11256;50.830;12.834;2023-10-09T09:19:58;97865.19;;;15.63;76.44
22181;BME280;11256;50.830;12.834;2023-10-09T09:24:59;97843.50;;;15.67;76.45
22181;BME280;11256;50.830;12.834;2023-10-09T09:30:22;97858.19;;;15.71;76.59
22181;BME280;11256;50.830;12.834;2023-10-09T09:35:24;97868.81;;;15.72;76.51
22181;BME280;11256;50.830;12.834;2023-10-09T09:40:28;97862.50;;;15.72;76.63
22181;BME280;11256;50.830;12.834;2023-10-09T09:45:34;97854.44;;;15.67;76.60
22181;BME280;11256;50.830;12.834;2023-10-09T09:50:35;97862.66;;;15.89;77.37
22181;BME280;11256;50.830;12.834;2023-10-09T09:55:46;97855.34;;;15.98;77.64
22181;BME280;11256;50.830;12.834;2023-10-09T10:01:01;97857.38;;;15.92;77.44
22181;BME280;11256;50.830;12.834;2023-10-09T10:06:08;97843.41;;;15.94;77.12
22181;BME280;11256;50.830;12.834;2023-10-09T10:11:53;97830.59;;;16.03;77.82
22181;BME280;11256;50.830;12.834;2023-10-09T10:17:03;97829.00;;;16.02;77.57
22181;BME280;11256;50.830;12.834;2023-10-09T10:22:23;97820.91;;;15.97;77.73
22181;BME280;11256;50.830;12.834;2023-10-09T10:27:27;97800.03;;;16.01;77.04
22181;BME280;11256;50.830;12.834;2023-10-09T10:37:51;97794.94;;;16.08;77.55
22181;BME280;11256;50.830;12.834;2023-10-09T10:43:00;97785.25;;;16.02;78.68
22181;BME280;11256;50.830;12.834;2023-10-09T10:48:10;97792.34;;;16.03;78.49
22181;BME280;11256;50.830;12.834;2023-10-09T10:53:23;97790.09;;;16.05;79.07
22181;BME280;11256;50.830;12.834;2023-10-09T10:58:27;97784.34;;;16.15;78.89
22181;BME280;11256;50.830;12.834;2023-10-09T11:03:38;97769.19;;;16.09;78.36
22181;BME280;11256;50.830;12.834;2023-10-09T11:08:57;97775.66;;;16.13;77.88
22181;BME280;11256;50.830;12.834;2023-10-09T11:14:09;97766.34;;;16.14;79.68
22181;BME280;11256;50.830;12.834;2023-10-09T11:19:19;97742.31;;;16.02;79.11
22181;BME280;11256;50.830;12.834;2023-10-09T11:24:30;97721.59;;;16.10;80.09
22181;BME280;11256;50.830;12.834;2023-10-09T11:29:35;97737.38;;;16.13;80.42
22181;BME280;11256;50.830;12.834;2023-10-09T11:34:46;97729.19;;;16.13;80.12
22181;BME280;11256;50.830;12.834;2023-10-09T11:39:53;97721.59;;;16.10;80.44
22181;BME280;11256;50.830;12.834;2023-10-09T11:44:54;97718.41;;;16.16;79.82
22181;BME280;11256;50.830;12.834;2023-10-09T11:49:56;97729.66;;;16.15;80.57
22181;BME280;11256;50.830;12.834;2023-10-09T11:55:06;97720.94;;;16.04;80.97
22181;BME280;11256;50.830;12.834;2023-10-09T12:00:17;97726.44;;;16.13;80.62
22181;BME280;11256;50.830;12.834;2023-10-09T12:05:26;97741.09;;;16.17;79.89
22181;BME280;11256;50.830;12.834;2023-10-09T12:10:28;97718.38;;;16.08;79.14
22181;BME280;11256;50.830;12.834;2023-10-09T12:15:30;97727.41;;;16.17;79.97
22181;BME280;11256;50.830;12.834;2023-10-09T12:20:37;97724.22;;;16.23;79.36
22181;BME280;11256;50.830;12.834;2023-10-09T12:25:38;97720.97;;;16.13;78.68
22181;BME280;11256;50.830;12.834;2023-10-09T12:30:38;97741.78;;;16.22;78.29
22181;BME280;11256;50.830;12.834;2023-10-09T12:35:41;97749.28;;;16.17;77.91
22181;BME280;11256;50.830;12.834;2023-10-09T12:40:45;97733.84;;;16.12;77.63
22181;BME280;11256;50.830;12.834;2023-10-09T12:45:52;97717.69;;;16.02;77.42
22181;BME280;11256;50.830;12.834;2023-10-09T12:50:57;97727.38;;;16.08;78.18
22181;BME280;11256;50.830;12.834;2023-10-09T12:55:57;97743.94;;;16.12;79.03
22181;BME280;11256;50.830;12.834;2023-10-09T13:00:58;97751.88;;;16.22;78.73
22181;BME280;11256;50.830;12.834;2023-10-09T13:06:09;97755.41;;;16.14;77.66
22181;BME280;11256;50.830;12.834;2023-10-09T13:11:12;97758.13;;;16.14;77.52
22181;BME280;11256;50.830;12.834;2023-10-09T13:16:22;97750.53;;;16.11;77.62
22181;BME280;11256;50.830;12.834;2023-10-09T13:21:27;97746.50;;;16.08;78.12
22181;BME280;11256;50.830;12.834;2023-10-09T13:26:32;97746.50;;;16.08;77.95
22181;BME280;11256;50.830;12.834;2023-10-09T13:31:35;97755.22;;;16.10;77.94
22181;BME280;11256;50.830;12.834;2023-10-09T13:36:38;97756.97;;;16.06;77.68
22181;BME280;11256;50.830;12.834;2023-10-09T13:41:38;97756.00;;;16.11;77.51
22181;BME280;11256;50.830;12.834;2023-10-09T13:46:42;97751.19;;;16.08;77.01
22181;BME280;11256;50.830;12.834;2023-10-09T13:51:43;97754.59;;;16.13;77.32
22181;BME280;11256;50.830;12.834;2023-10-09T13:56:44;97744.91;;;16.07;78.27
22181;BME280;11256;50.830;12.834;2023-10-09T14:01:45;97753.78;;;16.13;77.50
22181;BME280;11256;50.830;12.834;2023-10-09T14:06:48;97755.88;;;16.16;77.89
22181;BME280;11256;50.830;12.834;2023-10-09T14:11:48;97745.91;;;16.11;78.65
22181;BME280;11256;50.830;12.834;2023-10-09T14:16:52;97749.94;;;16.14;78.51
22181;BME280;11256;50.830;12.834;2023-10-09T14:21:57;97750.28;;;16.21;78.36
22181;BME280;11256;50.830;12.834;2023-10-09T14:26:59;97734.53;;;16.18;78.65
22181;BME280;11256;50.830;12.834;2023-10-09T14:31:59;97738.88;;;16.19;78.50
22181;BME280;11256;50.830;12.834;2023-10-09T14:37:03;97746.41;;;16.22;79.54
22181;BME280;11256;50.830;12.834;2023-10-09T14:42:04;97744.81;;;16.21;78.77
22181;BME280;11256;50.830;12.834;2023-10-09T14:47:09;97752.22;;;16.20;78.30
22181;BME280;11256;50.830;12.834;2023-10-09T14:52:10;97757.19;;;16.18;78.45
22181;BME280;11256;50.830;12.834;2023-10-09T14:57:14;97756.41;;;16.18;77.92
22181;BME280;11256;50.830;12.834;2023-10-09T15:02:14;97743.81;;;16.17;77.89
22181;BME280;11256;50.830;12.834;2023-10-09T15:07:15;97751.41;;;16.20;78.75
22181;BME280;11256;50.830;12.834;2023-10-09T15:12:16;97744.13;;;16.07;79.04
22181;BME280;11256;50.830;12.834;2023-10-09T15:17:16;97741.50;;;16.02;79.18
22181;BME280;11256;50.830;12.834;2023-10-09T15:22:16;97758.00;;;16.19;78.74
22181;BME280;11256;50.830;12.834;2023-10-09T15:27:17;97768.13;;;16.18;78.55
22181;BME280;11256;50.830;12.834;2023-10-09T15:32:18;97766.34;;;16.14;79.38
22181;BME280;11256;50.830;12.834;2023-10-09T15:37:22;97773.41;;;16.15;79.17
22181;BME280;11256;50.830;12.834;2023-10-09T15:42:23;97772.13;;;16.12;79.50
22181;BME280;11256;50.830;12.834;2023-10-09T15:47:23;97769.56;;;16.16;79.23
22181;BME280;11256;50.830;12.834;2023-10-09T15:52:23;97778.28;;;16.18;78.86
22181;BME280;11256;50.830;12.834;2023-10-09T15:57:26;97774.81;;;16.04;78.98
22181;BME280;11256;50.830;12.834;2023-10-09T16:02:27;97794.28;;;16.11;78.84
22181;BME280;11256;50.830;12.834;2023-10-09T16:07:27;97791.69;;;16.06;78.93
22181;BME280;11256;50.830;12.834;2023-10-09T16:12:28;97791.69;;;16.06;79.10
22181;BME280;11256;50.830;12.834;2023-10-09T16:17:34;97796.19;;;16.02;78.90
22181;BME280;11256;50.830;12.834;2023-10-09T16:22:34;97801.66;;;16.02;78.81
22181;BME280;11256;50.830;12.834;2023-10-09T16:27:35;97811.09;;;15.96;79.86
22181;BME280;11256;50.830;12.834;2023-10-09T16:32:36;97804.94;;;15.90;79.42
22181;BME280;11256;50.830;12.834;2023-10-09T16:37:38;97807.25;;;15.97;79.29
22181;BME280;11256;50.830;12.834;2023-10-09T16:42:39;97804.78;;;15.87;79.20
22181;BME280;11256;50.830;12.834;2023-10-09T16:47:46;97821.53;;;15.94;78.94
22181;BME280;11256;50.830;12.834;2023-10-09T16:52:47;97827.31;;;15.92;79.45
22181;BME280;11256;50.830;12.834;2023-10-09T16:57:47;97821.16;;;15.87;81.61
22181;BME280;11256;50.830;12.834;2023-10-09T17:02:48;97827.31;;;15.92;79.13
22181;BME280;11256;50.830;12.834;2023-10-09T17:07:49;97834.72;;;15.92;79.05
22181;BME280;11256;50.830;12.834;2023-10-09T17:12:49;97827.31;;;15.92;78.82
22181;BME280;11256;50.830;12.834;2023-10-09T17:17:52;97830.84;;;15.93;79.08
22181;BME280;11256;50.830;12.834;2023-10-09T17:22:56;97828.25;;;15.88;78.49
22181;BME280;11256;50.830;12.834;2023-10-09T17:28:03;97825.03;;;15.86;78.64
22181;BME280;11256;50.830;12.834;2023-10-09T17:33:04;97825.19;;;15.89;78.44
22181;BME280;11256;50.830;12.834;2023-10-09T17:38:04;97809.88;;;15.80;78.40
22181;BME280;11256;50.830;12.834;2023-10-09T17:43:05;97831.47;;;15.90;79.76
22181;BME280;11256;50.830;12.834;2023-10-09T17:48:05;97839.19;;;15.88;78.72
22181;BME280;11256;50.830;12.834;2023-10-09T17:53:08;97848.69;;;15.90;79.01
22181;BME280;11256;50.830;12.834;2023-10-09T17:58:08;97839.78;;;15.85;79.20
22181;BME280;11256;50.830;12.834;2023-10-09T18:03:12;97855.16;;;15.94;78.87
22181;BME280;11256;50.830;12.834;2023-10-09T18:08:15;97841.47;;;15.94;78.73
22181;BME280;11256;50.830;12.834;2023-10-09T18:13:16;97855.94;;;15.95;78.94
22181;BME280;11256;50.830;12.834;2023-10-09T18:18:19;97852.72;;;15.93;78.95
22181;BME280;11256;50.830;12.834;2023-10-09T18:23:19;97842.91;;;15.92;79.00
22181;BME280;11256;50.830;12.834;2023-10-09T18:28:20;97860.31;;;15.96;78.92
22181;BME280;11256;50.830;12.834;2023-10-09T18:33:20;97847.69;;;15.86;78.72
22181;BME280;11256;50.830;12.834;2023-10-09T18:38:23;97851.41;;;15.90;78.94
22181;BME280;11256;50.830;12.834;2023-10-09T18:43:23;97844.53;;;15.93;79.48
22181;BME280;11256;50.830;12.834;2023-10-09T18:48:23;97838.56;;;15.91;78.97
22181;BME280;11256;50.830;12.834;2023-10-09T18:53:28;97842.78;;;15.97;78.57
22181;BME280;11256;50.830;12.834;2023-10-09T18:58:32;97858.56;;;16.00;78.87
22181;BME280;11256;50.830;12.834;2023-10-09T19:03:32;97840.34;;;15.95;78.85
22181;BME280;11256;50.830;12.834;2023-10-09T19:08:34;97853.38;;;15.98;78.50
22181;BME280;11256;50.830;12.834;2023-10-09T19:13:35;97851.97;;;16.01;78.84
22181;BME280;11256;50.830;12.834;2023-10-09T19:18:36;97848.13;;;16.02;78.56
22181;BME280;11256;50.830;12.834;2023-10-09T19:23:38;97854.91;;;16.04;78.68
22181;BME280;11256;50.830;12.834;2023-10-09T19:28:43;97856.34;;;16.02;78.36
22181;BME280;11256;50.830;12.834;2023-10-09T19:33:44;97847.63;;;16.00;78.91
22181;BME280;11256;50.830;12.834;2023-10-09T19:38:46;97857.31;;;16.06;78.99
22181;BME280;11256;50.830;12.834;2023-10-09T19:43:52;97864.41;;;16.07;78.79
22181;BME280;11256;50.830;12.834;2023-10-09T19:48:56;97848.88;;;15.94;78.79
22181;BME280;11256;50.830;12.834;2023-10-09T19:53:56;97860.56;;;16.08;78.83
22181;BME280;11256;50.830;12.834;2023-10-09T19:58:58;97878.41;;;16.05;78.53
22181;BME280;11256;50.830;12.834;2023-10-09T20:03:58;97873.72;;;16.06;78.54
22181;BME280;11256;50.830;12.834;2023-10-09T20:08:58;97889.03;;;16.07;78.89
22181;BME280;11256;50.830;12.834;2023-10-09T20:13:59;97879.63;;;15.99;79.05
22181;BME280;11256;50.830;12.834;2023-10-09T20:19:00;97884.16;;;16.04;78.69
22181;BME280;11256;50.830;12.834;2023-10-09T20:24:02;97901.06;;;16.06;79.55
22181;BME280;11256;50.830;12.834;2023-10-09T20:29:02;97894.28;;;16.03;78.91
22181;BME280;11256;50.830;12.834;2023-10-09T20:34:03;97891.88;;;16.02;79.01
22181;BME280;11256;50.830;12.834;2023-10-09T20:39:10;97900.56;;;16.04;78.70
22181;BME280;11256;50.830;12.834;2023-10-09T20:44:10;97905.91;;;16.09;78.78
22181;BME280;11256;50.830;12.834;2023-10-09T20:49:11;97918.66;;;16.13;78.84
22181;BME280;11256;50.830;12.834;2023-10-09T20:54:14;97924.13;;;16.13;79.51
22181;BME280;11256;50.830;12.834;2023-10-09T20:59:15;97916.97;;;16.04;78.81
22181;BME280;11256;50.830;12.834;2023-10-09T21:04:16;97931.00;;;16.11;78.63
22181;BME280;11256;50.830;12.834;2023-10-09T21:09:16;97925.19;;;16.04;79.01
22181;BME280;11256;50.830;12.834;2023-10-09T21:14:17;97924.22;;;16.08;78.62
22181;BME280;11256;50.830;12.834;2023-10-09T21:19:17;97926.06;;;16.13;78.92
22181;BME280;11256;50.830;12.834;2023-10-09T21:24:17;97936.47;;;16.11;78.82
22181;BME280;11256;50.830;12.834;2023-10-09T21:29:18;97934.38;;;16.08;78.68
22181;BME280;11256;50.830;12.834;2023-10-09T21:34:18;97931.84;;;16.11;78.66
22181;BME280;11256;50.830;12.834;2023-10-09T21:39:19;97943.06;;;16.10;78.52
22181;BME280;11256;50.830;12.834;2023-10-09T21:44:19;97932.25;;;16.05;78.80
22181;BME280;11256;50.830;12.834;2023-10-09T21:49:20;97929.22;;;16.06;78.38
22181;BME280;11256;50.830;12.834;2023-10-09T21:54:20;97930.63;;;16.04;78.18
22181;BME280;11256;50.830;12.834;2023-10-09T21:59:20;97942.59;;;16.08;78.37
22181;BME280;11256;50.830;12.834;2023-10-09T22:04:21;97946.44;;;16.07;78.38
22181;BME280;11256;50.830;12.834;2023-10-09T22:09:21;97942.59;;;16.08;77.93
22181;BME280;11256;50.830;12.834;2023-10-09T22:14:22;97933.06;;;16.05;78.49
22181;BME280;11256;50.830;12.834;2023-10-09T22:19:23;97943.91;;;16.10;78.78
22181;BME280;11256;50.830;12.834;2023-10-09T22:24:25;97937.50;;;16.15;78.88
22181;BME280;11256;50.830;12.834;2023-10-09T22:29:26;97946.19;;;16.17;79.17
22181;BME280;11256;50.830;12.834;2023-10-09T22:34:27;97942.97;;;16.15;79.27
22181;BME280;11256;50.830;12.834;2023-10-09T22:39:30;97946.81;;;16.14;78.89
22181;BME280;11256;50.830;12.834;2023-10-09T22:44:34;97950.03;;;16.16;79.25
22181;BME280;11256;50.830;12.834;2023-10-09T22:49:34;97953.72;;;16.11;78.96
22181;BME280;11256;50.830;12.834;2023-10-09T22:54:35;97956.31;;;16.16;79.28
22181;BME280;11256;50.830;12.834;2023-10-09T22:59:35;97952.28;;;16.14;78.77
22181;BME280;11256;50.830;12.834;2023-10-09T23:04:44;97966.25;;;16.12;78.90
22181;BME280;11256;50.830;12.834;2023-10-09T23:09:49;97951.47;;;16.13;78.84
22181;BME280;11256;50.830;12.834;2023-10-09T23:14:51;97958.16;;;16.07;78.50
22181;BME280;11256;50.830;12.834;2023-10-09T23:19:53;97961.63;;;16.13;78.65
22181;BME280;11256;50.830;12.834;2023-10-09T23:24:56;97974.66;;;16.16;78.52
22181;BME280;11256;50.830;12.834;2023-10-09T23:30:17;97954.94;;;16.05;78.72
22181;BME280;11256;50.830;12.834;2023-10-09T23:35:23;97966.25;;;16.12;78.30
22181;BME280;11256;50.830;12.834;2023-10-09T23:40:44;97970.91;;;16.12;78.16
22181;BME280;11256;50.830;12.834;2023-10-09T23:45:45;97968.69;;;16.14;78.75
22181;BME280;11256;50.830;12.834;2023-10-09T23:50:45;97974.16;;;16.14;78.37
22181;BME280;11256;50.830;12.834;2023-10-09T23:55:48;97973.97;;;16.10;78.79
